sensor_id;sensor_type;location;lat;lon;timestamp;pressure;altitude;pressure_sealevel;temperature;humidity
47897;BME280;39629;51.400;5.494;2022-11-20T00:01:33;101165.59;;;-1.66;100.00
47897;BME280;39629;51.400;5.494;2022-11-20T00:06:35;101156.22;;;-1.81;100.00
47897;BME280;39629;51.400;5.494;2022-11-20T00:11:38;101164.69;;;-1.83;100.00
47897;BME280;39629;51.400;5.494;2022-11-20T00:16:39;101164.03;;;-1.79;100.00
47897;BME280;39629;51.400;5.494;2022-11-20T00:21:41;101161.81;;;-2.37;100.00
47897;BME280;39629;51.400;5.494;2022-11-20T00:26:44;101147.63;;;-2.46;100.00
47897;BME280;39629;51.400;5.494;2022-11-20T00:31:45;101146.13;;;-2.42;100.00
47897;BME280;39629;51.400;5.494;2022-11-20T00:36:47;101141.03;;;-2.41;100.00
47897;BME280;39629;51.400;5.494;2022-11-20T00:41:50;101149.91;;;-2.35;100.00
47897;BME280;39629;51.400;5.494;2022-11-20T00:46:51;101147.97;;;-2.39;100.00
47897;BME280;39629;51.400;5.494;2022-11-20T00:51:53;101140.72;;;-2.47;100.00
47897;BME280;39629;51.400;5.494;2022-11-20T00:56:56;101146.53;;;-2.66;100.00
47897;BME280;39629;51.400;5.494;2022-11-20T01:01:57;101137.59;;;-2.72;100.00
47897;BME280;39629;51.400;5.494;2022-11-20T01:06:59;101144.69;;;-2.68;100.00
47897;BME280;39629;51.400;5.494;2022-11-20T01:12:02;101146.63;;;-2.64;100.00
47897;BME280;39629;51.400;5.494;2022-11-20T01:17:03;101151.16;;;-2.60;100.00
47897;BME280;39629;51.400;5.494;2022-11-20T01:22:05;101151.31;;;-2.57;100.00
47897;BME280;39629;51.400;5.494;2022-11-20T01:27:08;101156.97;;;-2.48;100.00
47897;BME280;39629;51.400;5.494;2022-11-20T01:32:09;101148.50;;;-2.30;100.00
47897;BME280;39629;51.400;5.494;2022-11-20T01:37:11;101150.03;;;-2.17;100.00
47897;BME280;39629;51.400;5.494;2022-11-20T01:42:14;101137.53;;;-2.10;100.00
47897;BME280;39629;51.400;5.494;2022-11-20T01:47:35;101136.41;;;-2.15;100.00
47897;BME280;39629;51.400;5.494;2022-11-20T01:52:42;101146.56;;;-2.01;100.00
47897;BME280;39629;51.400;5.494;2022-11-20T01:57:47;101142.22;;;-1.86;100.00
47897;BME280;39629;51.400;5.494;2022-11-20T02:02:54;101150.69;;;-1.72;100.00
47897;BME280;39629;51.400;5.494;2022-11-20T02:07:57;101140.19;;;-1.75;100.00
47897;BME280;39629;51.400;5.494;2022-11-20T02:13:02;101132.06;;;-1.66;100.00
47897;BME280;39629;51.400;5.494;2022-11-20T02:18:21;101132.06;;;-1.66;100.00
47897;BME280;39629;51.400;5.494;2022-11-20T02:23:27;101127.13;;;-1.62;100.00
47897;BME280;39629;51.400;5.494;2022-11-20T02:28:35;101128.25;;;-1.73;100.00
47897;BME280;39629;51.400;5.494;2022-11-20T02:33:36;101127.75;;;-1.49;100.00
47897;BME280;39629;51.400;5.494;2022-11-20T02:38:38;101122.94;;;-1.42;100.00
47897;BME280;39629;51.400;5.494;2022-11-20T02:43:41;101123.28;;;-1.35;100.00
47897;BME280;39629;51.400;5.494;2022-11-20T02:48:43;101118.72;;;-1.23;100.00
47897;BME280;39629;51.400;5.494;2022-11-20T02:53:44;101116.00;;;-1.08;100.00
47897;BME280;39629;51.400;5.494;2022-11-20T02:58:47;101118.66;;;-1.07;100.00
47897;BME280;39629;51.400;5.494;2022-11-20T03:03:49;101111.19;;;-1.00;100.00
47897;BME280;39629;51.400;5.494;2022-11-20T03:08:51;101110.41;;;-0.99;100.00
47897;BME280;39629;51.400;5.494;2022-11-20T03:13:53;101107.00;;;-0.98;100.00
47897;BME280;39629;51.400;5.494;2022-11-20T03:18:56;101112.53;;;-0.91;100.00
47897;BME280;39629;51.400;5.494;2022-11-20T03:23:57;101094.16;;;-0.79;100.00
47897;BME280;39629;51.400;5.494;2022-11-20T03:29:02;101091.44;;;-0.82;100.00
47897;BME280;39629;51.400;5.494;2022-11-20T03:34:04;101083.56;;;-0.83;100.00
47897;BME280;39629;51.400;5.494;2022-11-20T03:39:06;101080.56;;;-0.75;100.00
47897;BME280;39629;51.400;5.494;2022-11-20T03:44:10;101079.81;;;-0.72;100.00
47897;BME280;39629;51.400;5.494;2022-11-20T03:49:12;101077.56;;;-0.64;100.00
47897;BME280;39629;51.400;5.494;2022-11-20T03:54:13;101073.34;;;-0.82;100.00
47897;BME280;39629;51.400;5.494;2022-11-20T03:59:16;101073.06;;;-0.68;100.00
47897;BME280;39629;51.400;5.494;2022-11-20T04:04:18;101064.88;;;-0.78;100.00
47897;BME280;39629;51.400;5.494;2022-11-20T04:09:20;101061.22;;;-0.83;100.00
47897;BME280;39629;51.400;5.494;2022-11-20T04:14:23;101063.75;;;-0.84;100.00
47897;BME280;39629;51.400;5.494;2022-11-20T04:19:24;101062.25;;;-0.97;100.00
47897;BME280;39629;51.400;5.494;2022-11-20T04:24:26;101062.63;;;-1.08;100.00
47897;BME280;39629;51.400;5.494;2022-11-20T04:29:29;101058.72;;;-0.99;100.00
47897;BME280;39629;51.400;5.494;2022-11-20T04:34:31;101063.91;;;-0.99;100.00
47897;BME280;39629;51.400;5.494;2022-11-20T04:39:32;101066.09;;;-0.89;100.00
47897;BME280;39629;51.400;5.494;2022-11-20T04:44:35;101057.53;;;-0.88;100.00
47897;BME280;39629;51.400;5.494;2022-11-20T04:49:37;101056.50;;;-0.92;100.00
47897;BME280;39629;51.400;5.494;2022-11-20T04:54:38;101062.16;;;-0.81;100.00
47897;BME280;39629;51.400;5.494;2022-11-20T04:59:41;101049.50;;;-0.94;100.00
47897;BME280;39629;51.400;5.494;2022-11-20T05:04:43;101044.53;;;-0.90;100.00
47897;BME280;39629;51.400;5.494;2022-11-20T05:09:45;101042.69;;;-0.92;100.00
47897;BME280;39629;51.400;5.494;2022-11-20T05:14:48;101043.44;;;-0.95;100.00
47897;BME280;39629;51.400;5.494;2022-11-20T05:19:49;101027.00;;;-0.97;100.00
47897;BME280;39629;51.400;5.494;2022-11-20T05:24:51;101029.56;;;-0.97;100.00
47897;BME280;39629;51.400;5.494;2022-11-20T05:29:54;101027.41;;;-0.88;100.00
47897;BME280;39629;51.400;5.494;2022-11-20T05:34:55;101023.63;;;-0.76;100.00
47897;BME280;39629;51.400;5.494;2022-11-20T05:39:57;101023.13;;;-0.87;100.00
47897;BME280;39629;51.400;5.494;2022-11-20T05:45:01;101026.22;;;-0.76;100.00
47897;BME280;39629;51.400;5.494;2022-11-20T05:50:03;101036.75;;;-0.72;100.00
47897;BME280;39629;51.400;5.494;2022-11-20T05:55:06;101042.72;;;-0.73;100.00
47897;BME280;39629;51.400;5.494;2022-11-20T06:00:10;101047.63;;;-0.79;100.00
47897;BME280;39629;51.400;5.494;2022-11-20T06:05:12;101059.56;;;-0.63;100.00
47897;BME280;39629;51.400;5.494;2022-11-20T06:10:14;101061.03;;;-0.50;100.00
47897;BME280;39629;51.400;5.494;2022-11-20T06:15:16;101059.19;;;-0.52;100.00
47897;BME280;39629;51.400;5.494;2022-11-20T06:20:18;101049.22;;;-0.43;100.00
47897;BME280;39629;51.400;5.494;2022-11-20T06:25:20;101052.97;;;-0.37;100.00
47897;BME280;39629;51.400;5.494;2022-11-20T06:30:23;101040.84;;;-0.38;100.00
47897;BME280;39629;51.400;5.494;2022-11-20T06:35:24;101052.91;;;-0.38;100.00
47897;BME280;39629;51.400;5.494;2022-11-20T06:40:26;101053.41;;;-0.47;100.00
47897;BME280;39629;51.400;5.494;2022-11-20T06:45:29;101045.28;;;-0.35;100.00
47897;BME280;39629;51.400;5.494;2022-11-20T06:50:30;101037.47;;;-0.37;100.00
47897;BME280;39629;51.400;5.494;2022-11-20T06:55:32;101034.34;;;-0.29;100.00
47897;BME280;39629;51.400;5.494;2022-11-20T07:00:35;101026.19;;;-0.39;100.00
47897;BME280;39629;51.400;5.494;2022-11-20T07:05:37;101041.69;;;-0.39;100.00
47897;BME280;39629;51.400;5.494;2022-11-20T07:10:39;101041.22;;;-0.30;100.00
47897;BME280;39629;51.400;5.494;2022-11-20T07:15:42;101025.50;;;-0.34;100.00
47897;BME280;39629;51.400;5.494;2022-11-20T07:20:43;101019.25;;;-0.40;100.00
47897;BME280;39629;51.400;5.494;2022-11-20T07:25:45;101023.59;;;-0.39;100.00
47897;BME280;39629;51.400;5.494;2022-11-20T07:30:51;101029.84;;;-0.33;100.00
47897;BME280;39629;51.400;5.494;2022-11-20T07:35:52;101024.81;;;-0.30;100.00
47897;BME280;39629;51.400;5.494;2022-11-20T07:40:54;101014.53;;;-0.29;100.00
47897;BME280;39629;51.400;5.494;2022-11-20T07:45:59;101026.78;;;-0.25;100.00
47897;BME280;39629;51.400;5.494;2022-11-20T07:51:01;101022.69;;;-0.39;100.00
47897;BME280;39629;51.400;5.494;2022-11-20T07:56:03;101026.50;;;-0.11;100.00
47897;BME280;39629;51.400;5.494;2022-11-20T08:01:07;101035.41;;;-0.05;100.00
47897;BME280;39629;51.400;5.494;2022-11-20T08:06:08;101029.72;;;0.04;100.00
47897;BME280;39629;51.400;5.494;2022-11-20T08:11:10;101030.84;;;-0.10;100.00
47897;BME280;39629;51.400;5.494;2022-11-20T08:16:31;101028.34;;;0.32;100.00
47897;BME280;39629;51.400;5.494;2022-11-20T08:21:32;101033.06;;;0.21;100.00
47897;BME280;39629;51.400;5.494;2022-11-20T08:26:35;101016.97;;;0.28;100.00
47897;BME280;39629;51.400;5.494;2022-11-20T08:31:38;101024.66;;;0.48;100.00
47897;BME280;39629;51.400;5.494;2022-11-20T08:36:40;101023.91;;;0.72;100.00
47897;BME280;39629;51.400;5.494;2022-11-20T08:41:41;101032.03;;;0.81;100.00
47897;BME280;39629;51.400;5.494;2022-11-20T08:46:44;101026.38;;;0.91;100.00
47897;BME280;39629;51.400;5.494;2022-11-20T08:51:47;101016.50;;;0.81;100.00
47897;BME280;39629;51.400;5.494;2022-11-20T08:56:51;101019.41;;;1.11;100.00
47897;BME280;39629;51.400;5.494;2022-11-20T09:01:55;101027.47;;;1.42;100.00
47897;BME280;39629;51.400;5.494;2022-11-20T09:06:56;101022.38;;;1.45;100.00
47897;BME280;39629;51.400;5.494;2022-11-20T09:11:58;101016.06;;;1.38;100.00
47897;BME280;39629;51.400;5.494;2022-11-20T09:17:01;101009.25;;;1.64;100.00
47897;BME280;39629;51.400;5.494;2022-11-20T09:22:02;101006.22;;;1.52;100.00
47897;BME280;39629;51.400;5.494;2022-11-20T09:27:04;101001.09;;;1.78;100.00
47897;BME280;39629;51.400;5.494;2022-11-20T09:32:07;100983.84;;;1.80;100.00
47897;BME280;39629;51.400;5.494;2022-11-20T09:37:09;100976.50;;;1.92;100.00
47897;BME280;39629;51.400;5.494;2022-11-20T09:42:22;100971.00;;;2.09;100.00
47897;BME280;39629;51.400;5.494;2022-11-20T09:47:39;100951.47;;;1.94;100.00
47897;BME280;39629;51.400;5.494;2022-11-20T09:52:55;100949.97;;;2.01;100.00
47897;BME280;39629;51.400;5.494;2022-11-20T09:58:05;100951.38;;;2.17;100.00
47897;BME280;39629;51.400;5.494;2022-11-20T10:03:13;100942.59;;;2.13;100.00
47897;BME280;39629;51.400;5.494;2022-11-20T10:08:19;100927.16;;;2.45;100.00
47897;BME280;39629;51.400;5.494;2022-11-20T10:13:32;100905.84;;;2.56;100.00
47897;BME280;39629;51.400;5.494;2022-11-20T10:18:48;100889.88;;;2.43;100.00
47897;BME280;39629;51.400;5.494;2022-11-20T10:24:06;100882.47;;;2.86;100.00
47897;BME280;39629;51.400;5.494;2022-11-20T10:29:14;100886.66;;;2.79;100.00
47897;BME280;39629;51.400;5.494;2022-11-20T10:34:21;100873.81;;;3.16;100.00
47897;BME280;39629;51.400;5.494;2022-11-20T10:39:32;100870.75;;;3.31;100.00
47897;BME280;39629;51.400;5.494;2022-11-20T10:44:35;100854.69;;;3.14;100.00
47897;BME280;39629;51.400;5.494;2022-11-20T10:50:00;100849.22;;;3.04;100.00
47897;BME280;39629;51.400;5.494;2022-11-20T10:55:11;100837.47;;;3.19;100.00
47897;BME280;39629;51.400;5.494;2022-11-20T11:00:17;100818.38;;;3.17;100.00
47897;BME280;39629;51.400;5.494;2022-11-20T11:05:29;100814.31;;;3.28;100.00
47897;BME280;39629;51.400;5.494;2022-11-20T11:10:39;100811.72;;;3.28;100.00
47897;BME280;39629;51.400;5.494;2022-11-20T11:15:42;100811.22;;;3.42;100.00
47897;BME280;39629;51.400;5.494;2022-11-20T11:20:51;100805.50;;;3.56;100.00
47897;BME280;39629;51.400;5.494;2022-11-20T11:25:56;100792.63;;;3.61;100.00
47897;BME280;39629;51.400;5.494;2022-11-20T11:30:59;100800.56;;;3.67;100.00
47897;BME280;39629;51.400;5.494;2022-11-20T11:36:03;100789.91;;;3.58;100.00
47897;BME280;39629;51.400;5.494;2022-11-20T11:41:08;100783.22;;;3.68;100.00
47897;BME280;39629;51.400;5.494;2022-11-20T11:46:29;100782.06;;;3.56;100.00
47897;BME280;39629;51.400;5.494;2022-11-20T11:51:37;100773.63;;;3.65;100.00
47897;BME280;39629;51.400;5.494;2022-11-20T11:56:41;100764.44;;;3.80;100.00
47897;BME280;39629;51.400;5.494;2022-11-20T12:01:45;100742.53;;;3.71;100.00
47897;BME280;39629;51.400;5.494;2022-11-20T12:07:07;100731.28;;;3.72;100.00
47897;BME280;39629;51.400;5.494;2022-11-20T12:12:16;100725.28;;;3.75;100.00
47897;BME280;39629;51.400;5.494;2022-11-20T12:17:19;100702.16;;;3.89;100.00
47897;BME280;39629;51.400;5.494;2022-11-20T12:22:29;100691.66;;;3.86;100.00
47897;BME280;39629;51.400;5.494;2022-11-20T12:27:45;100674.47;;;3.94;100.00
47897;BME280;39629;51.400;5.494;2022-11-20T12:33:12;100660.03;;;4.07;100.00
47897;BME280;39629;51.400;5.494;2022-11-20T12:38:39;100657.69;;;4.21;100.00
47897;BME280;39629;51.400;5.494;2022-11-20T12:43:52;100655.28;;;4.32;100.00
47897;BME280;39629;51.400;5.494;2022-11-20T12:49:26;100625.69;;;4.27;100.00
47897;BME280;39629;51.400;5.494;2022-11-20T12:54:58;100616.19;;;4.30;100.00
47897;BME280;39629;51.400;5.494;2022-11-20T13:00:10;100606.06;;;4.46;100.00
47897;BME280;39629;51.400;5.494;2022-11-20T13:05:19;100600.34;;;4.65;100.00
47897;BME280;39629;51.400;5.494;2022-11-20T13:10:31;100574.50;;;4.79;100.00
47897;BME280;39629;51.400;5.494;2022-11-20T13:15:42;100583.13;;;4.76;100.00
47897;BME280;39629;51.400;5.494;2022-11-20T13:20:48;100557.94;;;4.77;100.00
47897;BME280;39629;51.400;5.494;2022-11-20T13:25:51;100556.31;;;4.84;100.00
47897;BME280;39629;51.400;5.494;2022-11-20T13:31:04;100544.22;;;4.89;100.00
47897;BME280;39629;51.400;5.494;2022-11-20T13:36:07;100537.44;;;5.00;100.00
47897;BME280;39629;51.400;5.494;2022-11-20T13:41:27;100516.59;;;5.02;100.00
47897;BME280;39629;51.400;5.494;2022-11-20T13:46:37;100504.50;;;5.05;100.00
47897;BME280;39629;51.400;5.494;2022-11-20T13:51:42;100500.03;;;4.98;100.00
47897;BME280;39629;51.400;5.494;2022-11-20T13:56:54;100490.47;;;4.99;100.00
47897;BME280;39629;51.400;5.494;2022-11-20T14:02:01;100487.94;;;5.03;100.00
47897;BME280;39629;51.400;5.494;2022-11-20T14:07:05;100473.91;;;4.97;100.00
47897;BME280;39629;51.400;5.494;2022-11-20T14:12:15;100467.03;;;5.00;100.00
47897;BME280;39629;51.400;5.494;2022-11-20T14:17:20;100461.78;;;4.97;100.00
47897;BME280;39629;51.400;5.494;2022-11-20T14:22:23;100453.09;;;5.00;100.00
47897;BME280;39629;51.400;5.494;2022-11-20T14:27:27;100448.75;;;4.97;100.00
47897;BME280;39629;51.400;5.494;2022-11-20T14:32:29;100451.25;;;4.91;100.00
47897;BME280;39629;51.400;5.494;2022-11-20T14:37:33;100432.13;;;4.89;100.00
47897;BME280;39629;51.400;5.494;2022-11-20T14:42:43;100428.53;;;4.82;100.00
47897;BME280;39629;51.400;5.494;2022-11-20T14:47:45;100418.13;;;4.82;100.00
47897;BME280;39629;51.400;5.494;2022-11-20T14:52:51;100395.50;;;4.81;100.00
47897;BME280;39629;51.400;5.494;2022-11-20T14:57:59;100385.88;;;4.75;100.00
47897;BME280;39629;51.400;5.494;2022-11-20T15:03:01;100368.47;;;4.74;100.00
47897;BME280;39629;51.400;5.494;2022-11-20T15:08:07;100352.88;;;4.78;100.00
47897;BME280;39629;51.400;5.494;2022-11-20T15:13:13;100347.72;;;4.81;100.00
47897;BME280;39629;51.400;5.494;2022-11-20T15:18:18;100335.56;;;4.83;100.00
47897;BME280;39629;51.400;5.494;2022-11-20T15:23:20;100334.72;;;4.87;100.00
47897;BME280;39629;51.400;5.494;2022-11-20T15:28:29;100325.19;;;4.87;100.00
47897;BME280;39629;51.400;5.494;2022-11-20T15:33:32;100319.06;;;4.85;100.00
47897;BME280;39629;51.400;5.494;2022-11-20T15:38:34;100310.44;;;4.91;100.00
47897;BME280;39629;51.400;5.494;2022-11-20T15:43:37;100293.97;;;4.95;100.00
47897;BME280;39629;51.400;5.494;2022-11-20T15:48:40;100287.09;;;5.00;100.00
47897;BME280;39629;51.400;5.494;2022-11-20T15:53:42;100278.44;;;5.04;100.00
47897;BME280;39629;51.400;5.494;2022-11-20T15:58:45;100263.78;;;5.16;100.00
47897;BME280;39629;51.400;5.494;2022-11-20T16:03:47;100250.75;;;5.19;100.00
47897;BME280;39629;51.400;5.494;2022-11-20T16:08:49;100248.22;;;5.26;100.00
47897;BME280;39629;51.400;5.494;2022-11-20T16:13:52;100235.22;;;5.31;100.00
47897;BME280;39629;51.400;5.494;2022-11-20T16:19:11;100238.75;;;5.36;100.00
47897;BME280;39629;51.400;5.494;2022-11-20T16:24:14;100226.63;;;5.43;100.00
47897;BME280;39629;51.400;5.494;2022-11-20T16:29:18;100214.44;;;5.43;100.00
47897;BME280;39629;51.400;5.494;2022-11-20T16:34:20;100208.41;;;5.48;100.00
47897;BME280;39629;51.400;5.494;2022-11-20T16:39:21;100206.69;;;5.53;100.00
47897;BME280;39629;51.400;5.494;2022-11-20T16:44:24;100195.38;;;5.54;100.00
47897;BME280;39629;51.400;5.494;2022-11-20T16:49:26;100187.63;;;5.63;100.00
47897;BME280;39629;51.400;5.494;2022-11-20T16:54:27;100179.84;;;5.69;100.00
47897;BME280;39629;51.400;5.494;2022-11-20T16:59:30;100176.41;;;5.76;100.00
47897;BME280;39629;51.400;5.494;2022-11-20T17:04:32;100168.59;;;5.84;100.00
47897;BME280;39629;51.400;5.494;2022-11-20T17:09:33;100159.91;;;5.90;100.00
47897;BME280;39629;51.400;5.494;2022-11-20T17:14:37;100152.13;;;5.96;100.00
47897;BME280;39629;51.400;5.494;2022-11-20T17:19:38;100145.19;;;6.01;100.00
47897;BME280;39629;51.400;5.494;2022-11-20T17:24:40;100140.00;;;6.06;100.00
47897;BME280;39629;51.400;5.494;2022-11-20T17:29:43;100129.56;;;6.10;100.00
47897;BME280;39629;51.400;5.494;2022-11-20T17:34:45;100124.38;;;6.17;100.00
47897;BME280;39629;51.400;5.494;2022-11-20T17:39:47;100120.91;;;6.27;100.00
47897;BME280;39629;51.400;5.494;2022-11-20T17:44:50;100120.03;;;6.33;100.00
47897;BME280;39629;51.400;5.494;2022-11-20T17:49:51;100115.78;;;6.49;100.00
47897;BME280;39629;51.400;5.494;2022-11-20T17:54:54;100117.53;;;6.56;100.00
47897;BME280;39629;51.400;5.494;2022-11-20T17:59:58;100107.97;;;6.66;100.00
47897;BME280;39629;51.400;5.494;2022-11-20T18:05:00;100121.06;;;6.73;100.00
47897;BME280;39629;51.400;5.494;2022-11-20T18:10:01;100138.47;;;6.73;100.00
47897;BME280;39629;51.400;5.494;2022-11-20T18:15:05;100141.97;;;6.76;100.00
47897;BME280;39629;51.400;5.494;2022-11-20T18:20:07;100143.72;;;6.82;100.00
47897;BME280;39629;51.400;5.494;2022-11-20T18:25:09;100155.91;;;6.81;100.00
47897;BME280;39629;51.400;5.494;2022-11-20T18:30:13;100168.13;;;6.78;100.00
47897;BME280;39629;51.400;5.494;2022-11-20T18:35:15;100168.13;;;6.73;100.00
47897;BME280;39629;51.400;5.494;2022-11-20T18:40:17;100168.97;;;6.72;100.00
47897;BME280;39629;51.400;5.494;2022-11-20T18:45:20;100170.75;;;6.76;100.00
47897;BME280;39629;51.400;5.494;2022-11-20T18:50:21;100166.38;;;6.72;100.00
47897;BME280;39629;51.400;5.494;2022-11-20T18:55:23;100170.72;;;6.69;100.00
47897;BME280;39629;51.400;5.494;2022-11-20T19:00:26;100162.88;;;6.69;100.00
47897;BME280;39629;51.400;5.494;2022-11-20T19:05:28;100171.56;;;6.66;100.00
47897;BME280;39629;51.400;5.494;2022-11-20T19:10:29;100179.41;;;6.64;100.00
47897;BME280;39629;51.400;5.494;2022-11-20T19:15:33;100190.72;;;6.62;100.00
47897;BME280;39629;51.400;5.494;2022-11-20T19:20:36;100183.75;;;6.58;100.00
47897;BME280;39629;51.400;5.494;2022-11-20T19:25:37;100194.19;;;6.58;100.00
47897;BME280;39629;51.400;5.494;2022-11-20T19:30:40;100204.69;;;6.67;100.00
47897;BME280;39629;51.400;5.494;2022-11-20T19:35:42;100206.41;;;6.59;100.00
47897;BME280;39629;51.400;5.494;2022-11-20T19:40:44;100203.78;;;6.57;100.00
47897;BME280;39629;51.400;5.494;2022-11-20T19:45:46;100201.19;;;6.59;100.00
47897;BME280;39629;51.400;5.494;2022-11-20T19:50:48;100208.16;;;6.60;100.00
47897;BME280;39629;51.400;5.494;2022-11-20T19:55:54;100209.00;;;6.50;100.00
47897;BME280;39629;51.400;5.494;2022-11-20T20:01:04;100214.25;;;6.51;100.00
47897;BME280;39629;51.400;5.494;2022-11-20T20:06:07;100220.34;;;6.49;100.00
47897;BME280;39629;51.400;5.494;2022-11-20T20:11:11;100216.78;;;6.46;100.00
47897;BME280;39629;51.400;5.494;2022-11-20T20:16:16;100216.78;;;6.43;100.00
47897;BME280;39629;51.400;5.494;2022-11-20T20:21:18;100225.47;;;6.39;100.00
47897;BME280;39629;51.400;5.494;2022-11-20T20:26:21;100234.19;;;6.38;100.00
47897;BME280;39629;51.400;5.494;2022-11-20T20:31:25;100232.47;;;6.40;100.00
47897;BME280;39629;51.400;5.494;2022-11-20T20:36:28;100238.53;;;6.36;100.00
47897;BME280;39629;51.400;5.494;2022-11-20T20:41:29;100245.50;;;6.36;100.00
47897;BME280;39629;51.400;5.494;2022-11-20T20:46:32;100248.09;;;6.34;100.00
47897;BME280;39629;51.400;5.494;2022-11-20T20:51:34;100258.56;;;6.34;100.00
47897;BME280;39629;51.400;5.494;2022-11-20T20:56:36;100253.31;;;6.31;100.00
47897;BME280;39629;51.400;5.494;2022-11-20T21:01:39;100253.31;;;6.29;100.00
47897;BME280;39629;51.400;5.494;2022-11-20T21:06:40;100271.59;;;6.29;100.00
47897;BME280;39629;51.400;5.494;2022-11-20T21:11:42;100273.31;;;6.27;100.00
47897;BME280;39629;51.400;5.494;2022-11-20T21:16:45;100279.44;;;6.28;100.00
47897;BME280;39629;51.400;5.494;2022-11-20T21:21:47;100293.34;;;6.24;100.00
47897;BME280;39629;51.400;5.494;2022-11-20T21:27:04;100298.56;;;6.19;100.00
47897;BME280;39629;51.400;5.494;2022-11-20T21:32:07;100284.59;;;6.19;100.00
47897;BME280;39629;51.400;5.494;2022-11-20T21:37:08;100306.34;;;6.13;100.00
47897;BME280;39629;51.400;5.494;2022-11-20T21:42:10;100288.88;;;6.06;100.00
47897;BME280;39629;51.400;5.494;2022-11-20T21:47:15;100294.03;;;6.00;100.00
47897;BME280;39629;51.400;5.494;2022-11-20T21:52:16;100292.25;;;5.91;100.00
47897;BME280;39629;51.400;5.494;2022-11-20T21:57:18;100290.50;;;5.88;100.00
47897;BME280;39629;51.400;5.494;2022-11-20T22:02:21;100293.09;;;5.88;100.00
47897;BME280;39629;51.400;5.494;2022-11-20T22:07:23;100288.78;;;5.90;100.00
47897;BME280;39629;51.400;5.494;2022-11-20T22:12:24;100296.59;;;5.89;100.00
47897;BME280;39629;51.400;5.494;2022-11-20T22:17:27;100312.22;;;5.83;100.00
47897;BME280;39629;51.400;5.494;2022-11-20T22:22:43;100310.50;;;5.88;100.00
47897;BME280;39629;51.400;5.494;2022-11-20T22:27:45;100315.75;;;5.88;100.00
47897;BME280;39629;51.400;5.494;2022-11-20T22:32:48;100316.66;;;5.91;100.00
47897;BME280;39629;51.400;5.494;2022-11-20T22:37:50;100320.97;;;5.88;100.00
47897;BME280;39629;51.400;5.494;2022-11-20T22:42:51;100322.66;;;5.86;100.00
47897;BME280;39629;51.400;5.494;2022-11-20T22:47:54;100336.66;;;5.91;100.00
47897;BME280;39629;51.400;5.494;2022-11-20T22:52:56;100348.78;;;5.86;100.00
47897;BME280;39629;51.400;5.494;2022-11-20T22:57:58;100344.41;;;5.82;100.00
47897;BME280;39629;51.400;5.494;2022-11-20T23:03:01;100348.66;;;5.72;100.00
47897;BME280;39629;51.400;5.494;2022-11-20T23:08:02;100352.88;;;5.56;100.00
47897;BME280;39629;51.400;5.494;2022-11-20T23:13:04;100368.41;;;5.43;100.00
47897;BME280;39629;51.400;5.494;2022-11-20T23:18:07;100369.25;;;5.39;100.00
47897;BME280;39629;51.400;5.494;2022-11-20T23:23:09;100366.75;;;5.49;100.00
47897;BME280;39629;51.400;5.494;2022-11-20T23:28:10;100400.72;;;5.55;100.00
47897;BME280;39629;51.400;5.494;2022-11-20T23:33:13;100399.06;;;5.61;100.00
47897;BME280;39629;51.400;5.494;2022-11-20T23:38:15;100399.91;;;5.60;100.00
47897;BME280;39629;51.400;5.494;2022-11-20T23:43:19;100400.00;;;5.68;100.00
47897;BME280;39629;51.400;5.494;2022-11-20T23:48:23;100401.63;;;5.57;100.00
47897;BME280;39629;51.400;5.494;2022-11-20T23:53:26;100398.06;;;5.50;100.00
47897;BME280;39629;51.400;5.494;2022-11-20T23:58:30;100396.31;;;5.49;100.00
